Darstellungsparameter: Aktuell verwendete Einstellungen:
Skalierung der Graphiken ... ?
xyx+y,   Skalierungsfaktor:      Skalierung: Modus: x, Faktor: 1
Darstellungszeitraum ... ?
Vom - - bis: - -   Zeitraum: 04.06.2009 - 06.06.2009
Min/Max/Avg-Anzeige ... ?
Zeige MMA aktuell
Zeige MMA Monat
Zeige MMA alles
Zeige --A aktuell
Zeige --A Monat
Zeige --A alles
Keine MMA-Anzeige
MMA:
Keine MMA-Graphiken
MMA-Basis: 04.06.2009 - 06.06.2009
Quicknavigation für Darstellung... ?
Tage:      1T, 2T, 3T, 5T -1T -2T -3T -5T +1T +2T +3T +5T
Wochen: 1W, 2W, 3W -1W -2W -3W +1W +2W +3W
Monate: 1M, 3M, 6M -1M -3M -6M +1M +3M +6M
Jahre:    1J, 3J, 5J, 10J -1J -3J -5J -10J +1J +3J +5J +10J
Nutze für die Darstellung ... ?
Originaldaten oder Mittelwerte auf ...
Stundenbasis Tagesbasis Wochenbasis
Monatsbasis Jahresbasis      Datenbasis: Original-Daten
Darstellen als:
Statistik (Auto) Statistik J:M      Darstellung:
Zur Graphik,    zurück zur Übersicht aller Sensoren.
 
Tabellarische Datenbersicht: ?
 
Sensor: Nr:Datum:Temp:Abs-Feuchte:Windchill:Wind:
Aussen-T/F 1 04-06-2009 00:05:36 13.7 C 5.21 g/m*3 13.7 C 0 km/h
2 04-06-2009 00:17:36 13.7 C 5.33 g/m*3 13.7 C 0 km/h
3 04-06-2009 00:29:36 13.4 C 5.23 g/m*3 13.4 C 0 km/h
4 04-06-2009 00:41:36 13.1 C 5.14 g/m*3 13.1 C 0 km/h
5 04-06-2009 00:53:36 13 C 5.22 g/m*3 13 C 0 km/h
6 04-06-2009 01:05:36 12.7 C 5.34 g/m*3 12.7 C 0 km/h
7 04-06-2009 01:17:36 12.6 C 5.42 g/m*3 12.6 C 0 km/h
8 04-06-2009 01:29:36 12.7 C 5.45 g/m*3 12.7 C 0 km/h
9 04-06-2009 01:41:36 12.6 C 5.42 g/m*3 12.6 C 0 km/h
10 04-06-2009 01:53:36 12.5 C 5.5 g/m*3 12.5 C 0 km/h
11 04-06-2009 02:05:36 12.5 C 4.95 g/m*3 12.5 C 0 km/h
12 04-06-2009 02:17:36 12.4 C 4.7 g/m*3 12.4 C 0 km/h
13 04-06-2009 02:29:36 12 C 4.48 g/m*3 12 C 0 km/h
14 04-06-2009 02:41:36 11.9 C 4.45 g/m*3 11.9 C 0 km/h
15 04-06-2009 02:53:36 11.7 C 4.18 g/m*3 11.7 C 0 km/h
16 04-06-2009 03:05:36 11.5 C 4.13 g/m*3 11.5 C 0 km/h
17 04-06-2009 03:17:37 11.2 C 3.95 g/m*3 11.2 C 0 km/h
18 04-06-2009 03:29:37 11 C 4 g/m*3 11 C 0 km/h
19 04-06-2009 03:41:37 10.8 C 4.15 g/m*3 10.8 C 0 km/h
20 04-06-2009 03:53:37 10.9 C 4.28 g/m*3 10.9 C 0 km/h
21 04-06-2009 04:05:37 10.8 C 4.15 g/m*3 10.8 C 0 km/h
22 04-06-2009 04:17:37 10.7 C 4.22 g/m*3 10.7 C 0 km/h
23 04-06-2009 04:29:37 10.6 C 4.29 g/m*3 10.6 C 0 km/h
24 04-06-2009 04:41:37 10.6 C 4.39 g/m*3 10.6 C 0 km/h
25 04-06-2009 04:53:37 10.7 C 4.62 g/m*3 10.7 C 0 km/h
Sensor: Nr:Datum:Temp:Abs-Feuchte:Windchill:Wind:
Aussen-T/F 26 04-06-2009 05:05:37 10.5 C 4.85 g/m*3 10.5 C 0 km/h
27 04-06-2009 05:17:37 10.5 C 4.95 g/m*3 10.5 C 0 km/h
28 04-06-2009 05:29:37 10.6 C 5.08 g/m*3 10.6 C 0 km/h
29 04-06-2009 05:41:37 10.7 C 5.11 g/m*3 10.7 C 0 km/h
30 04-06-2009 05:53:37 10.7 C 5.01 g/m*3 10.7 C 0 km/h
31 04-06-2009 06:05:37 10.7 C 5.11 g/m*3 10.7 C 0 km/h
32 04-06-2009 06:17:37 10.7 C 5.01 g/m*3 10.7 C 0 km/h
33 04-06-2009 06:29:37 10.5 C 4.75 g/m*3 10.5 C 0 km/h
34 04-06-2009 06:41:37 10.6 C 4.78 g/m*3 10.6 C 0 km/h
35 04-06-2009 06:53:35 10.7 C 4.91 g/m*3 10.7 C 0 km/h
36 04-06-2009 07:05:35 10.7 C 4.91 g/m*3 10.7 C 0 km/h
37 04-06-2009 07:17:35 11 C 4.8 g/m*3 11 C 0 km/h
38 04-06-2009 07:29:35 10.8 C 5.04 g/m*3 10.8 C 0 km/h
39 04-06-2009 07:41:35 10.8 C 5.34 g/m*3 10.8 C 0 km/h
40 04-06-2009 07:53:35 11 C 5.31 g/m*3 11 C 0 km/h
41 04-06-2009 08:05:34 11.6 C 5.4 g/m*3 11.6 C 0 km/h
42 04-06-2009 08:17:34 11.8 C 5.37 g/m*3 11.8 C 0 km/h
43 04-06-2009 08:29:34 11.9 C 5.3 g/m*3 11.9 C 0 km/h
44 04-06-2009 08:41:34 12.2 C 5.18 g/m*3 12.2 C 0 km/h
45 04-06-2009 08:53:34 12.5 C 5.17 g/m*3 12.5 C 0 km/h
46 04-06-2009 09:05:33 13 C 4.88 g/m*3 13 C 0 km/h
47 04-06-2009 09:17:34 12.8 C 4.59 g/m*3 12.8 C 0 km/h
48 04-06-2009 09:29:34 12.3 C 4.13 g/m*3 12.3 C 0 km/h
49 04-06-2009 09:41:34 12.7 C 4.23 g/m*3 12.7 C 0 km/h
50 04-06-2009 09:53:33 12.9 C 4.51 g/m*3 12.9 C 0 km/h
Sensor: Nr:Datum:Temp:Abs-Feuchte:Windchill:Wind:
Aussen-T/F 51 04-06-2009 10:05:34 13 C 4.2 g/m*3 13 C 0 km/h
52 04-06-2009 10:17:33 13.1 C 4.45 g/m*3 13.1 C 0 km/h
53 04-06-2009 10:29:33 14.1 C 4.49 g/m*3 14.1 C 0 km/h
54 04-06-2009 10:41:33 13.5 C 4.33 g/m*3 13.5 C 0 km/h
55 04-06-2009 10:53:33 13.2 C 4.36 g/m*3 13.2 C 0 km/h
56 04-06-2009 11:05:33 14 C 4.46 g/m*3 14 C 0 km/h
57 04-06-2009 11:17:32 14.7 C 4.53 g/m*3 14.7 C 0 km/h
58 04-06-2009 11:29:32 13.3 C 4.04 g/m*3 13.3 C 0 km/h
59 04-06-2009 11:41:32 13.1 C 3.99 g/m*3 13.1 C 0 km/h
60 04-06-2009 11:53:32 13.5 C 4.33 g/m*3 13.5 C 0 km/h
61 04-06-2009 12:05:32 14.7 C 4.53 g/m*3 14.7 C 0 km/h
62 04-06-2009 12:17:32 14.5 C 4.35 g/m*3 14.5 C 0 km/h
63 04-06-2009 12:29:32 14.6 C 4.25 g/m*3 14.6 C 0 km/h
64 04-06-2009 12:41:32 14.4 C 3.96 g/m*3 14.4 C 0 km/h
65 04-06-2009 12:53:32 14.7 C 4.28 g/m*3 14.7 C 0 km/h
66 04-06-2009 13:05:31 14.7 C 4.41 g/m*3 14.7 C 0 km/h
67 04-06-2009 13:17:32 15.7 C 4.01 g/m*3 15.7 C 0 km/h
68 04-06-2009 13:29:32 15.6 C 3.72 g/m*3 15.6 C 0 km/h
69 04-06-2009 13:41:31 14.9 C 3.95 g/m*3 14.9 C 0 km/h
70 04-06-2009 13:53:31 14.4 C 3.96 g/m*3 14.4 C 0 km/h
71 04-06-2009 14:05:31 15.1 C 4.13 g/m*3 15.1 C 0 km/h
72 04-06-2009 14:17:31 16.2 C 4.14 g/m*3 16.2 C 0 km/h
73 04-06-2009 14:29:31 15.3 C 3.79 g/m*3 15.3 C 0 km/h
74 04-06-2009 14:41:31 14.8 C 3.67 g/m*3 14.8 C 0 km/h
75 04-06-2009 14:53:30 15.8 C 3.9 g/m*3 15.8 C 0 km/h
Sensor: Nr:Datum:Temp:Abs-Feuchte:Windchill:Wind:
Aussen-T/F 76 04-06-2009 15:05:30 16.3 C 4.16 g/m*3 16.3 C 0 km/h
77 04-06-2009 15:17:30 17.5 C 3.88 g/m*3 17.5 C 0 km/h
78 04-06-2009 15:29:30 16.1 C 3.56 g/m*3 16.1 C 0 km/h
79 04-06-2009 15:41:30 15.9 C 3.79 g/m*3 15.9 C 0 km/h
80 04-06-2009 15:53:30 16.4 C 3.77 g/m*3 16.4 C 0 km/h
81 04-06-2009 16:05:30 16.3 C 3.75 g/m*3 16.3 C 0 km/h
82 04-06-2009 16:17:30 16.2 C 3.59 g/m*3 16.2 C 0 km/h
83 04-06-2009 16:29:30 17.2 C 3.66 g/m*3 17.2 C 0 km/h
84 04-06-2009 16:41:30 16.5 C 3.51 g/m*3 16.5 C 0 km/h
85 04-06-2009 16:53:29 16.2 C 3.72 g/m*3 16.2 C 0 km/h
86 04-06-2009 17:05:29 16.1 C 3.84 g/m*3 16.1 C 0 km/h
87 04-06-2009 17:17:29 16.4 C 3.91 g/m*3 16.4 C 0 km/h
88 04-06-2009 17:29:29 15.6 C 3.86 g/m*3 15.6 C 0 km/h
89 04-06-2009 17:41:29 15.6 C 3.99 g/m*3 15.6 C 0 km/h
90 04-06-2009 17:53:28 16.2 C 4.14 g/m*3 16.2 C 0 km/h
91 04-06-2009 18:05:29 16 C 4.09 g/m*3 16 C 0 km/h
92 04-06-2009 18:17:29 15.8 C 4.17 g/m*3 15.8 C 0 km/h
93 04-06-2009 18:29:29 16.1 C 4.25 g/m*3 16.1 C 0 km/h
94 04-06-2009 18:41:29 15.4 C 4.07 g/m*3 15.4 C 0 km/h
95 04-06-2009 18:53:28 15.7 C 4.28 g/m*3 15.7 C 0 km/h
96 04-06-2009 19:05:28 15.3 C 4.18 g/m*3 15.3 C 0 km/h
97 04-06-2009 19:17:28 15.4 C 4.2 g/m*3 15.4 C 0 km/h
98 04-06-2009 19:29:28 15.4 C 4.34 g/m*3 15.4 C 0 km/h
99 04-06-2009 19:41:28 14.7 C 4.41 g/m*3 14.7 C 0 km/h
100 04-06-2009 19:53:28 15.1 C 4.52 g/m*3 15.1 C 0 km/h
Sensor: Nr:Datum:Temp:Abs-Feuchte:Windchill:Wind:
Aussen-T/F 101 04-06-2009 20:05:28 14.9 C 4.59 g/m*3 14.9 C 0 km/h
102 04-06-2009 20:17:27 14.9 C 4.59 g/m*3 14.9 C 0 km/h
103 04-06-2009 20:29:27 14.7 C 4.66 g/m*3 14.7 C 0 km/h
104 04-06-2009 20:41:27 14.5 C 4.73 g/m*3 14.5 C 0 km/h
105 04-06-2009 20:53:27 14.1 C 4.61 g/m*3 14.1 C 0 km/h
106 04-06-2009 21:05:27 14 C 4.7 g/m*3 14 C 0 km/h
107 04-06-2009 21:17:27 13.8 C 4.77 g/m*3 13.8 C 0 km/h
108 04-06-2009 21:29:27 13.7 C 4.86 g/m*3 13.7 C 0 km/h
109 04-06-2009 21:41:27 13.5 C 4.91 g/m*3 13.5 C 0 km/h
110 04-06-2009 21:53:27 13.5 C 5.03 g/m*3 13.5 C 0 km/h
111 04-06-2009 22:06:22 13.3 C 4.97 g/m*3 13.3 C 0 km/h
112 04-06-2009 22:18:22 13.2 C 4.94 g/m*3 13.2 C 0 km/h
113 04-06-2009 22:30:22 13 C 4.99 g/m*3 13 C 0 km/h
114 04-06-2009 22:42:22 13 C 4.88 g/m*3 13 C 0 km/h
115 04-06-2009 22:54:22 12.9 C 4.96 g/m*3 12.9 C 0 km/h
116 04-06-2009 23:06:22 12.7 C 5.01 g/m*3 12.7 C 0 km/h
117 04-06-2009 23:18:22 12.4 C 4.92 g/m*3 12.4 C 0 km/h
118 04-06-2009 23:30:22 12.2 C 4.86 g/m*3 12.2 C 0 km/h
119 04-06-2009 23:42:22 12.1 C 4.93 g/m*3 12.1 C 0 km/h
120 04-06-2009 23:54:22 12 C 5.01 g/m*3 12 C 0 km/h
121 05-06-2009 00:06:22 11.7 C 5.12 g/m*3 11.7 C 0 km/h
122 05-06-2009 00:18:22 11.7 C 5.12 g/m*3 11.7 C 0 km/h
123 05-06-2009 00:30:22 11.6 C 5.09 g/m*3 11.6 C 0 km/h
124 05-06-2009 00:42:22 11.4 C 4.82 g/m*3 11.4 C 0 km/h
125 05-06-2009 00:54:22 11.2 C 4.76 g/m*3 11.2 C 0 km/h
Sensor: Nr:Datum:Temp:Abs-Feuchte:Windchill:Wind:
Aussen-T/F 126 05-06-2009 01:06:22 11.2 C 4.66 g/m*3 11.2 C 0 km/h
127 05-06-2009 01:18:22 11.1 C 4.63 g/m*3 11.1 C 0 km/h
128 05-06-2009 01:30:22 11 C 4.6 g/m*3 11 C 0 km/h
129 05-06-2009 01:42:22 10.9 C 4.67 g/m*3 10.9 C 0 km/h
130 05-06-2009 01:54:23 10.8 C 4.65 g/m*3 10.8 C 0 km/h
131 05-06-2009 02:06:23 10.7 C 4.71 g/m*3 10.7 C 0 km/h
132 05-06-2009 02:18:23 10.4 C 4.72 g/m*3 10.4 C 0 km/h
133 05-06-2009 02:30:23 10 C 4.7 g/m*3 10 C 0 km/h
134 05-06-2009 02:42:23 9.6 C 4.76 g/m*3 9.6 C 0 km/h
135 05-06-2009 02:54:23 9.2 C 4.91 g/m*3 9.2 C 0 km/h
136 05-06-2009 03:06:23 9.2 C 5 g/m*3 9.2 C 0 km/h
137 05-06-2009 03:18:23 9.3 C 5.03 g/m*3 9.3 C 0 km/h
138 05-06-2009 03:30:23 9.2 C 5 g/m*3 9.2 C 0 km/h
139 05-06-2009 03:42:23 9 C 5.11 g/m*3 9 C 0 km/h
140 05-06-2009 03:54:23 8.6 C 5.16 g/m*3 8.6 C 0 km/h
141 05-06-2009 04:06:23 8.6 C 5.16 g/m*3 8.6 C 0 km/h
142 05-06-2009 04:18:23 8.6 C 5.24 g/m*3 8.6 C 0 km/h
143 05-06-2009 04:30:23 8.5 C 5.21 g/m*3 8.5 C 0 km/h
144 05-06-2009 04:42:23 8.5 C 5.29 g/m*3 8.5 C 0 km/h
145 05-06-2009 04:54:23 8.5 C 5.38 g/m*3 8.5 C 0 km/h
146 05-06-2009 05:06:23 8.4 C 5.34 g/m*3 8.4 C 0 km/h
147 05-06-2009 05:18:23 8.1 C 5.33 g/m*3 8.1 C 0 km/h
148 05-06-2009 05:30:23 8.2 C 5.44 g/m*3 8.2 C 0 km/h
149 05-06-2009 05:42:23 8.4 C 5.6 g/m*3 8.4 C 0 km/h
150 05-06-2009 05:54:24 8.5 C 5.64 g/m*3 8.5 C 0 km/h
Sensor: Nr:Datum:Temp:Abs-Feuchte:Windchill:Wind:
Aussen-T/F 151 05-06-2009 06:06:24 8.5 C 5.72 g/m*3 8.5 C 0 km/h
152 05-06-2009 06:18:24 8.5 C 5.64 g/m*3 8.5 C 0 km/h
153 05-06-2009 06:30:24 8.5 C 5.72 g/m*3 8.5 C 0 km/h
154 05-06-2009 06:42:24 8.5 C 5.72 g/m*3 8.5 C 0 km/h
155 05-06-2009 06:54:24 8.7 C 5.79 g/m*3 8.7 C 0 km/h
156 05-06-2009 07:06:28 8.8 C 5.83 g/m*3 8.8 C 0 km/h
157 05-06-2009 07:18:27 8.9 C 5.78 g/m*3 8.9 C 0 km/h
158 05-06-2009 07:30:28 9.2 C 5.63 g/m*3 9.2 C 0 km/h
159 05-06-2009 07:42:28 10 C 5.64 g/m*3 10 C 0 km/h
160 05-06-2009 07:54:27 10.2 C 5.52 g/m*3 10.2 C 0 km/h
161 05-06-2009 08:06:27 10.5 C 5.63 g/m*3 10.5 C 0 km/h
162 05-06-2009 08:18:27 10.8 C 5.63 g/m*3 10.8 C 0 km/h
163 05-06-2009 08:30:27 10.6 C 5.56 g/m*3 10.6 C 0 km/h
164 05-06-2009 08:42:27 10.2 C 5.61 g/m*3 10.2 C 0 km/h
165 05-06-2009 08:54:26 10.4 C 5.78 g/m*3 10.4 C 0 km/h
166 05-06-2009 09:06:27 11.5 C 5.78 g/m*3 11.5 C 0 km/h
167 05-06-2009 09:18:26 12.3 C 5.43 g/m*3 12.3 C 0 km/h
168 05-06-2009 09:30:26 12.7 C 5.12 g/m*3 12.7 C 0 km/h
169 05-06-2009 09:42:26 11.8 C 4.95 g/m*3 11.8 C 0 km/h
170 05-06-2009 09:54:26 12.1 C 5.25 g/m*3 12.1 C 0 km/h
171 05-06-2009 10:06:26 12.7 C 5.12 g/m*3 12.7 C 0 km/h
172 05-06-2009 10:18:25 13.1 C 5.02 g/m*3 13.1 C 0 km/h
173 05-06-2009 10:30:26 12.3 C 4.67 g/m*3 12.3 C 0 km/h
174 05-06-2009 10:42:26 13.3 C 4.97 g/m*3 13.3 C 0 km/h
175 05-06-2009 10:54:26 12.6 C 4.54 g/m*3 12.6 C 0 km/h
Sensor: Nr:Datum:Temp:Abs-Feuchte:Windchill:Wind:
Aussen-T/F 176 05-06-2009 11:06:25 12.3 C 4.56 g/m*3 12.3 C 0 km/h
177 05-06-2009 11:18:26 13 C 4.76 g/m*3 13 C 0 km/h
178 05-06-2009 11:30:25 13.4 C 4.65 g/m*3 13.4 C 0 km/h
179 05-06-2009 11:42:25 14 C 4.34 g/m*3 14 C 0 km/h
180 05-06-2009 11:54:25 14.3 C 4.18 g/m*3 14.3 C 0 km/h
181 05-06-2009 12:06:24 14.6 C 4.38 g/m*3 14.6 C 0 km/h
182 05-06-2009 12:18:25 15.3 C 4.44 g/m*3 15.3 C 0 km/h
183 05-06-2009 12:30:25 15.6 C 4.26 g/m*3 15.6 C 0 km/h
184 05-06-2009 12:42:25 16.1 C 4.25 g/m*3 16.1 C 0 km/h
185 05-06-2009 12:54:24 16.6 C 4.38 g/m*3 16.6 C 0 km/h
186 05-06-2009 13:06:25 18.5 C 4.43 g/m*3 18.5 C 0 km/h
187 05-06-2009 13:18:24 17.7 C 4.22 g/m*3 17.7 C 0 km/h
188 05-06-2009 13:30:24 17.2 C 4.25 g/m*3 17.2 C 0 km/h
189 05-06-2009 13:42:25 16.6 C 4.1 g/m*3 16.6 C 0 km/h
190 05-06-2009 13:54:24 16.2 C 4 g/m*3 16.2 C 0 km/h
191 05-06-2009 14:06:24 16.5 C 4.07 g/m*3 16.5 C 0 km/h
192 05-06-2009 14:18:23 16.8 C 4.15 g/m*3 16.8 C 0 km/h
193 05-06-2009 14:30:23 16.6 C 3.96 g/m*3 16.6 C 0 km/h
194 05-06-2009 14:42:23 16.2 C 3.86 g/m*3 16.2 C 0 km/h
195 05-06-2009 14:54:23 16.4 C 4.19 g/m*3 16.4 C 0 km/h
196 05-06-2009 15:06:23 16.8 C 4.15 g/m*3 16.8 C 0 km/h
197 05-06-2009 15:18:23 16.4 C 3.77 g/m*3 16.4 C 0 km/h
198 05-06-2009 15:30:23 16 C 3.95 g/m*3 16 C 0 km/h
199 05-06-2009 15:42:23 15.9 C 3.93 g/m*3 15.9 C 0 km/h
200 05-06-2009 15:54:23 15.6 C 3.72 g/m*3 15.6 C 0 km/h
Sensor: Nr:Datum:Temp:Abs-Feuchte:Windchill:Wind:
Aussen-T/F 201 05-06-2009 16:06:22 16.8 C 3.86 g/m*3 16.8 C 0 km/h
202 05-06-2009 16:18:22 17.6 C 4.05 g/m*3 17.6 C 0 km/h
203 05-06-2009 16:30:23 18.4 C 4.09 g/m*3 18.4 C 0 km/h
204 05-06-2009 16:42:23 18.9 C 4.05 g/m*3 18.9 C 0 km/h
205 05-06-2009 16:54:22 20.1 C 4 g/m*3 20.1 C 0 km/h
206 05-06-2009 17:06:21 20 C 3.46 g/m*3 20 C 0 km/h
207 05-06-2009 17:18:22 18.4 C 3.3 g/m*3 18.4 C 0 km/h
208 05-06-2009 17:30:22 20.4 C 3.71 g/m*3 20.4 C 0 km/h
209 05-06-2009 17:42:22 20.7 C 3.6 g/m*3 20.7 C 0 km/h
210 05-06-2009 17:54:21 22 C 3.88 g/m*3 22 C 0 km/h
211 05-06-2009 18:06:22 22.9 C 4.09 g/m*3 22.9 C 0 km/h
212 05-06-2009 18:18:21 22.9 C 4.09 g/m*3 22.9 C 0 km/h
213 05-06-2009 18:30:21 22.1 C 3.9 g/m*3 22.1 C 0 km/h
214 05-06-2009 18:42:21 21 C 3.66 g/m*3 21 C 0 km/h
215 05-06-2009 18:54:21 20.7 C 3.6 g/m*3 20.7 C 0 km/h
216 05-06-2009 19:06:21 21 C 3.66 g/m*3 21 C 0 km/h
217 05-06-2009 19:18:20 20.2 C 3.5 g/m*3 20.2 C 0 km/h
218 05-06-2009 19:30:20 18.5 C 3.48 g/m*3 18.5 C 0 km/h
219 05-06-2009 19:42:20 17.7 C 3.92 g/m*3 17.7 C 0 km/h
220 05-06-2009 19:54:20 17.9 C 3.97 g/m*3 17.9 C 0 km/h
221 05-06-2009 20:06:20 17.7 C 4.07 g/m*3 17.7 C 0 km/h
222 05-06-2009 20:18:20 17.2 C 4.25 g/m*3 17.2 C 0 km/h
223 05-06-2009 20:30:20 16.9 C 4.6 g/m*3 16.9 C 0 km/h
224 05-06-2009 20:42:20 16 C 4.63 g/m*3 16 C 0 km/h
225 05-06-2009 20:54:20 15 C 4.62 g/m*3 15 C 0 km/h
Sensor: Nr:Datum:Temp:Abs-Feuchte:Windchill:Wind:
Aussen-T/F 226 05-06-2009 21:06:20 14.2 C 4.76 g/m*3 14.2 C 0 km/h
227 05-06-2009 21:18:20 13.4 C 4.77 g/m*3 13.4 C 0 km/h
228 05-06-2009 21:30:19 13 C 4.65 g/m*3 13 C 0 km/h
229 05-06-2009 21:42:19 12.7 C 4.9 g/m*3 12.7 C 0 km/h
230 05-06-2009 21:54:20 12.2 C 4.86 g/m*3 12.2 C 0 km/h
231 05-06-2009 22:06:19 11.9 C 4.87 g/m*3 11.9 C 0 km/h
232 05-06-2009 22:18:19 11.8 C 5.05 g/m*3 11.8 C 0 km/h
233 05-06-2009 22:31:19 11.4 C 5.03 g/m*3 11.4 C 0 km/h
234 05-06-2009 22:43:19 11.1 C 5.04 g/m*3 11.1 C 0 km/h
235 05-06-2009 22:55:19 11 C 5.1 g/m*3 11 C 0 km/h
236 05-06-2009 23:07:19 10.8 C 5.14 g/m*3 10.8 C 0 km/h
237 05-06-2009 23:19:19 10.5 C 5.14 g/m*3 10.5 C 0 km/h
238 05-06-2009 23:31:19 10.4 C 5.2 g/m*3 10.4 C 0 km/h
239 05-06-2009 23:43:19 10.1 C 5.2 g/m*3 10.1 C 0 km/h
240 05-06-2009 23:55:20 10 C 5.17 g/m*3 10 C 0 km/h
241 06-06-2009 00:07:20 9.8 C 5.29 g/m*3 9.8 C 0 km/h
242 06-06-2009 00:19:20 9.7 C 5.35 g/m*3 9.7 C 0 km/h
243 06-06-2009 00:31:20 9.5 C 5.37 g/m*3 9.5 C 0 km/h
244 06-06-2009 00:43:20 9.1 C 5.32 g/m*3 9.1 C 0 km/h
245 06-06-2009 00:55:20 8.9 C 5.43 g/m*3 8.9 C 0 km/h
246 06-06-2009 01:07:20 8.8 C 5.4 g/m*3 8.8 C 0 km/h
247 06-06-2009 01:19:20 8.6 C 5.33 g/m*3 8.6 C 0 km/h
248 06-06-2009 01:31:20 8.6 C 5.41 g/m*3 8.6 C 0 km/h
249 06-06-2009 01:43:20 8.5 C 5.55 g/m*3 8.5 C 0 km/h
250 06-06-2009 01:55:20 8.3 C 5.48 g/m*3 8.3 C 0 km/h
Sensor: Nr:Datum:Temp:Abs-Feuchte:Windchill:Wind:
Aussen-T/F 251 06-06-2009 02:07:20 8.2 C 5.53 g/m*3 8.2 C 0 km/h
252 06-06-2009 02:19:20 8.1 C 5.49 g/m*3 8.1 C 0 km/h
253 06-06-2009 02:31:20 8.1 C 5.57 g/m*3 8.1 C 0 km/h
254 06-06-2009 02:43:20 8.1 C 5.66 g/m*3 8.1 C 0 km/h
255 06-06-2009 02:55:20 8.1 C 5.66 g/m*3 8.1 C 0 km/h
256 06-06-2009 03:07:20 8 C 5.79 g/m*3 8 C 0 km/h
257 06-06-2009 03:19:20 7.8 C 5.79 g/m*3 7.8 C 0 km/h
258 06-06-2009 03:31:20 7.6 C 5.8 g/m*3 7.6 C 0 km/h
259 06-06-2009 03:43:20 7.5 C 5.84 g/m*3 7.5 C 0 km/h
260 06-06-2009 03:55:20 7.4 C 5.81 g/m*3 7.4 C 0 km/h
261 06-06-2009 04:07:21 7.4 C 5.81 g/m*3 7.4 C 0 km/h
262 06-06-2009 04:19:21 7.4 C 5.81 g/m*3 7.4 C 0 km/h
263 06-06-2009 04:31:21 7.3 C 5.85 g/m*3 7.3 C 0 km/h
264 06-06-2009 04:43:21 7.1 C 5.77 g/m*3 7.1 C 0 km/h
265 06-06-2009 04:55:21 7.2 C 5.89 g/m*3 7.2 C 0 km/h
266 06-06-2009 05:07:21 7.4 C 5.96 g/m*3 7.4 C 0 km/h
267 06-06-2009 05:19:21 7.6 C 6.04 g/m*3 7.6 C 0 km/h
268 06-06-2009 05:31:21 7.8 C 6.04 g/m*3 7.8 C 0 km/h
269 06-06-2009 05:43:21 8 C 6.04 g/m*3 8 C 0 km/h
270 06-06-2009 05:55:21 8.1 C 6.07 g/m*3 8.1 C 0 km/h
271 06-06-2009 06:07:21 8.2 C 6.11 g/m*3 8.2 C 0 km/h
272 06-06-2009 06:19:21 8.4 C 6.19 g/m*3 8.4 C 0 km/h
273 06-06-2009 06:31:21 8.7 C 6.23 g/m*3 8.7 C 0 km/h
274 06-06-2009 06:43:21 8.7 C 6.05 g/m*3 8.7 C 0 km/h
275 06-06-2009 06:55:21 8.9 C 6.13 g/m*3 8.9 C 0 km/h
Sensor: Nr:Datum:Temp:Abs-Feuchte:Windchill:Wind:
Aussen-T/F 276 06-06-2009 07:07:21 8.9 C 6.13 g/m*3 8.9 C 0 km/h
277 06-06-2009 07:19:21 8.9 C 6.13 g/m*3 8.9 C 0 km/h
278 06-06-2009 07:31:21 8.6 C 6.27 g/m*3 8.6 C 0 km/h
279 06-06-2009 07:43:21 8.6 C 6.44 g/m*3 8.6 C 0 km/h
280 06-06-2009 07:55:21 8.6 C 6.62 g/m*3 8.6 C 0 km/h
281 06-06-2009 08:07:22 8.6 C 6.79 g/m*3 8.6 C 0 km/h
282 06-06-2009 08:19:22 8.6 C 6.96 g/m*3 8.6 C 0 km/h
283 06-06-2009 08:31:22 8.3 C 7.08 g/m*3 8.3 C 0 km/h
284 06-06-2009 08:43:22 8.3 C 7.33 g/m*3 8.3 C 0 km/h
285 06-06-2009 08:55:22 8.2 C 7.37 g/m*3 8.2 C 0 km/h
286 06-06-2009 09:07:19 8.5 C 7.6 g/m*3 8.5 C 0 km/h
287 06-06-2009 09:19:19 8.4 C 7.63 g/m*3 8.4 C 0 km/h
288 06-06-2009 09:31:20 8.7 C 7.78 g/m*3 8.7 C 0 km/h
289 06-06-2009 09:43:20 8.7 C 7.87 g/m*3 8.7 C 0 km/h
290 06-06-2009 09:55:19 8.9 C 7.97 g/m*3 8.9 C 0 km/h
291 06-06-2009 10:07:19 9.1 C 7.99 g/m*3 9.1 C 0 km/h
292 06-06-2009 10:19:19 9.1 C 7.99 g/m*3 9.1 C 0 km/h
293 06-06-2009 10:31:19 8.9 C 7.97 g/m*3 8.9 C 0 km/h
294 06-06-2009 10:43:19 9 C 7.93 g/m*3 9 C 0 km/h
295 06-06-2009 10:55:18 9 C 7.93 g/m*3 9 C 0 km/h
296 06-06-2009 11:07:19 9 C 7.93 g/m*3 9 C 0 km/h
297 06-06-2009 11:19:18 9 C 7.93 g/m*3 9 C 0 km/h
298 06-06-2009 11:31:18 9.2 C 8.13 g/m*3 9.2 C 0 km/h
299 06-06-2009 11:43:18 9.2 C 8.13 g/m*3 9.2 C 0 km/h
300 06-06-2009 11:55:18 9 C 8.02 g/m*3 9 C 0 km/h
Sensor: Nr:Datum:Temp:Abs-Feuchte:Windchill:Wind:
Aussen-T/F 301 06-06-2009 12:07:17 9.2 C 8.13 g/m*3 9.2 C 0 km/h
302 06-06-2009 12:19:18 9.4 C 8.32 g/m*3 9.4 C 0 km/h
303 06-06-2009 12:31:18 9.3 C 8.27 g/m*3 9.3 C 0 km/h
304 06-06-2009 12:43:18 9.3 C 8.27 g/m*3 9.3 C 0 km/h
305 06-06-2009 12:55:17 9.5 C 8.37 g/m*3 9.5 C 0 km/h
306 06-06-2009 13:07:18 9.6 C 8.43 g/m*3 9.6 C 0 km/h
307 06-06-2009 13:19:17 9.7 C 8.48 g/m*3 9.7 C 0 km/h
308 06-06-2009 13:31:17 9.7 C 8.57 g/m*3 9.7 C 0 km/h
309 06-06-2009 13:43:17 9.7 C 8.57 g/m*3 9.7 C 0 km/h
310 06-06-2009 13:55:17 9.6 C 8.52 g/m*3 9.6 C 0 km/h
311 06-06-2009 14:07:17 9.8 C 8.63 g/m*3 9.8 C 0 km/h
312 06-06-2009 14:19:16 9.8 C 8.63 g/m*3 9.8 C 0 km/h
313 06-06-2009 14:31:16 9.8 C 8.63 g/m*3 9.8 C 0 km/h
314 06-06-2009 14:43:16 9.6 C 8.43 g/m*3 9.6 C 0 km/h
315 06-06-2009 14:55:16 9.5 C 8.37 g/m*3 9.5 C 0 km/h
316 06-06-2009 15:07:16 9.5 C 8.37 g/m*3 9.5 C 0 km/h
317 06-06-2009 15:19:15 9.4 C 8.32 g/m*3 9.4 C 0 km/h
318 06-06-2009 15:31:16 9.5 C 8.37 g/m*3 9.5 C 0 km/h
319 06-06-2009 15:43:16 9.7 C 8.57 g/m*3 9.7 C 0 km/h
320 06-06-2009 15:55:15 9.8 C 8.63 g/m*3 9.8 C 0 km/h
321 06-06-2009 16:07:15 10.1 C 8.7 g/m*3 10.1 C 0 km/h
322 06-06-2009 16:19:16 10.1 C 8.7 g/m*3 10.1 C 0 km/h
323 06-06-2009 16:31:15 9.9 C 8.68 g/m*3 9.9 C 0 km/h
324 06-06-2009 16:43:15 10 C 8.64 g/m*3 10 C 0 km/h
325 06-06-2009 16:55:15 9.9 C 8.68 g/m*3 9.9 C 0 km/h
Sensor: Nr:Datum:Temp:Abs-Feuchte:Windchill:Wind:
Aussen-T/F 326 06-06-2009 17:07:15 9.9 C 8.59 g/m*3 9.9 C 0 km/h
327 06-06-2009 17:19:15 9.9 C 8.59 g/m*3 9.9 C 0 km/h
328 06-06-2009 17:31:14 10.1 C 8.61 g/m*3 10.1 C 0 km/h
329 06-06-2009 17:43:14 10.3 C 8.71 g/m*3 10.3 C 0 km/h
330 06-06-2009 17:55:15 10.4 C 8.67 g/m*3 10.4 C 0 km/h
331 06-06-2009 18:07:14 10.5 C 8.73 g/m*3 10.5 C 0 km/h
332 06-06-2009 18:19:14 10.9 C 8.95 g/m*3 10.9 C 0 km/h
333 06-06-2009 18:31:02 10.7 C 8.64 g/m*3 10.7 C 0 km/h
334 06-06-2009 18:43:02 10.8 C 8.7 g/m*3 10.8 C 0 km/h
335 06-06-2009 18:55:01 10.7 C 8.45 g/m*3 10.7 C 0 km/h
336 06-06-2009 19:07:02 10.8 C 8.5 g/m*3 10.8 C 0 km/h
337 06-06-2009 19:19:01 10.9 C 8.45 g/m*3 10.9 C 0 km/h
338 06-06-2009 19:31:01 11.1 C 8.56 g/m*3 11.1 C 0 km/h
339 06-06-2009 19:43:01 11 C 8.51 g/m*3 11 C 0 km/h
340 06-06-2009 19:55:01 10.9 C 8.65 g/m*3 10.9 C 0 km/h
341 06-06-2009 20:07:01 10.5 C 8.34 g/m*3 10.5 C 0 km/h
342 06-06-2009 20:19:00 10.4 C 8.29 g/m*3 10.4 C 0 km/h
343 06-06-2009 20:31:00 10.4 C 8.38 g/m*3 10.4 C 0 km/h
344 06-06-2009 20:43:00 10.4 C 8.38 g/m*3 10.4 C 0 km/h
345 06-06-2009 20:55:00 10.3 C 8.33 g/m*3 10.3 C 0 km/h
346 06-06-2009 21:07:00 10.3 C 8.43 g/m*3 10.3 C 0 km/h
347 06-06-2009 21:18:59 10.2 C 8.37 g/m*3 10.2 C 0 km/h
348 06-06-2009 21:31:00 10.2 C 8.37 g/m*3 10.2 C 0 km/h
349 06-06-2009 21:43:00 10.1 C 8.32 g/m*3 10.1 C 0 km/h
350 06-06-2009 21:55:59 9.8 C 8.26 g/m*3 9.8 C 0 km/h
Sensor: Nr:Datum:Temp:Abs-Feuchte:Windchill:Wind:
Aussen-T/F 351 06-06-2009 22:07:59 9.5 C 8.1 g/m*3 9.5 C 0 km/h
352 06-06-2009 22:19:00 9.4 C 8.14 g/m*3 9.4 C 0 km/h
353 06-06-2009 22:31:59 9.4 C 8.23 g/m*3 9.4 C 0 km/h
354 06-06-2009 22:43:59 9.5 C 8.28 g/m*3 9.5 C 0 km/h
355 06-06-2009 22:55:59 9.6 C 8.43 g/m*3 9.6 C 0 km/h
356 06-06-2009 23:07:59 9.5 C 8.37 g/m*3 9.5 C 0 km/h
357 06-06-2009 23:19:59 9.5 C 8.37 g/m*3 9.5 C 0 km/h
358 06-06-2009 23:31:58 9.2 C 8.13 g/m*3 9.2 C 0 km/h
359 06-06-2009 23:43:58 8.8 C 8.01 g/m*3 8.8 C 0 km/h
360 06-06-2009 23:55:59 8.5 C 7.85 g/m*3 8.5 C 0 km/h

Legende:
   Min
   Max


Maximal/Minimal-Werte vom 04.06.2009 - 06.06.2009

Sensor Min Max Avg
Temp
(Aussen-T/F)
7.1 °C
06-06-2009  04:43:21
22.9 °C
05-06-2009  18:06:22
12.01 °C
Abs-Feuchte
(Aussen-T/F)
3.3 g/m*3
05-06-2009  17:18:22
8.95 g/m*3
06-06-2009  18:19:14
5.54 g/m*3
Windchill
(Aussen-T/F)
7.1 C
06-06-2009  04:43:21
22.9 C
05-06-2009  18:06:22
11.98 C

Die Daten stammen von einer Davis Vantage Pro 2 Wetter-Station und werden unter Linux mit der Software wview2wettercgi und aufbereitet. Alle Angaben erfolgen ohne Gewähr für ihre Vollständigkeit oder Richtigkeit.
Kontakt: Rainer Krienke krienke@uni-koblenz.de . Meine Webseiten an der Uni Koblenz oder privat.
Version: $Revision: 0.78 $